createdAt,value
2022-11-28T00:01:23.818Z,100009.60
2022-11-28T00:03:51.535Z,100003.57
2022-11-28T00:06:19.600Z,100008.48
2022-11-28T00:08:47.554Z,100004.10
2022-11-28T00:11:16.439Z,100001.83
2022-11-28T00:13:45.154Z,100002.55
2022-11-28T00:16:21.356Z,99997.27
2022-11-28T00:18:50.306Z,100001.64
2022-11-28T00:21:18.454Z,99990.67
2022-11-28T00:23:47.527Z,99989.52
2022-11-28T00:26:15.125Z,99991.21
2022-11-28T00:28:43.168Z,99996.37
2022-11-28T00:31:19.350Z,99994.75
2022-11-28T00:33:47.364Z,99993.86
2022-11-28T00:36:15.828Z,99989.64
2022-11-28T00:38:43.743Z,99995.94
2022-11-28T00:41:14.041Z,99990.09
2022-11-28T00:43:42.623Z,99986.29
2022-11-28T00:46:11.051Z,99989.58
2022-11-28T00:48:38.910Z,99986.05
2022-11-28T00:51:19.559Z,99983.11
2022-11-28T00:53:48.834Z,99975.79
2022-11-28T00:56:19.456Z,99974.03
2022-11-28T00:58:49.652Z,99968.10
2022-11-28T01:01:18.963Z,99970.55
2022-11-28T01:03:48.300Z,99966.34
2022-11-28T01:06:25.049Z,99962.48
2022-11-28T01:08:52.928Z,99957.20
2022-11-28T01:11:21.569Z,99953.62
2022-11-28T01:13:49.721Z,99952.84
2022-11-28T01:16:17.603Z,99956.20
2022-11-28T01:18:45.427Z,99957.21
2022-11-28T01:21:13.114Z,99964.45
2022-11-28T01:23:40.727Z,99958.63
2022-11-28T01:26:09.556Z,99956.42
2022-11-28T01:28:37.173Z,99954.80
2022-11-28T01:31:06.548Z,99954.85
2022-11-28T01:33:34.361Z,99944.60
2022-11-28T01:36:02.359Z,99933.73
2022-11-28T01:38:30.207Z,99932.05
2022-11-28T01:40:58.185Z,99930.92
2022-11-28T01:43:25.944Z,99931.70
2022-11-28T01:45:54.154Z,99931.61
2022-11-28T01:48:27.849Z,99922.15
2022-11-28T01:51:00.437Z,99918.86
2022-11-28T01:53:33.521Z,99924.25
2022-11-28T01:56:06.135Z,99916.93
2022-11-28T01:58:35.207Z,99910.14
2022-11-28T02:01:04.177Z,99906.08
2022-11-28T02:03:38.529Z,99904.94
2022-11-28T02:06:06.349Z,99899.60
2022-11-28T02:08:35.419Z,99897.95
2022-11-28T02:11:12.103Z,99897.64
2022-11-28T02:13:44.579Z,99896.52
2022-11-28T02:16:30.583Z,99892.36
2022-11-28T02:19:11.137Z,99889.30
2022-11-28T02:21:46.599Z,99885.73
2022-11-28T02:24:33.268Z,99886.91
2022-11-28T02:27:19.641Z,99885.65
2022-11-28T02:30:07.099Z,99883.88
2022-11-28T02:32:55.482Z,99880.88
2022-11-28T02:35:29.312Z,99880.72
2022-11-28T02:38:09.506Z,99883.33
2022-11-28T02:40:49.206Z,99874.16
2022-11-28T02:43:48.111Z,99876.47
2022-11-28T02:46:40.869Z,99868.92
2022-11-28T02:49:13.560Z,99869.88
2022-11-28T02:51:56.800Z,99866.58
2022-11-28T02:54:25.041Z,99865.55
2022-11-28T02:56:54.028Z,99864.04
2022-11-28T02:59:37.110Z,99861.92
2022-11-28T03:02:28.993Z,99858.65
2022-11-28T03:05:08.879Z,99857.41
2022-11-28T03:08:01.488Z,99857.07
2022-11-28T03:10:38.046Z,99852.74
2022-11-28T03:13:30.558Z,99853.13
2022-11-28T03:16:24.914Z,99852.65
2022-11-28T03:18:55.285Z,99855.33
2022-11-28T03:21:30.629Z,99861.31
2022-11-28T03:24:01.452Z,99857.33
2022-11-28T03:26:55.412Z,99854.59
2022-11-28T03:29:34.465Z,99856.59
2022-11-28T03:32:07.847Z,99860.27
2022-11-28T03:34:38.781Z,99865.08
2022-11-28T03:37:23.907Z,99864.90
2022-11-28T03:39:59.148Z,99863.23
2022-11-28T03:42:30.061Z,99864.04
2022-11-28T03:45:03.988Z,99860.02
2022-11-28T03:47:35.405Z,99856.52
2022-11-28T03:50:07.027Z,99861.05
2022-11-28T03:52:45.755Z,99856.61
2022-11-28T03:55:18.769Z,99855.46
2022-11-28T03:57:57.217Z,99857.27
2022-11-28T04:00:25.184Z,99854.70
2022-11-28T04:03:02.913Z,99854.33
2022-11-28T04:05:48.839Z,99848.10
2022-11-28T04:08:32.959Z,99845.91
2022-11-28T04:11:07.852Z,99844.09
2022-11-28T04:13:49.749Z,99840.86
2022-11-28T04:16:56.057Z,99844.19
2022-11-28T04:19:29.539Z,99841.14
2022-11-28T04:22:04.362Z,99836.61
2022-11-28T04:24:35.234Z,99842.90
2022-11-28T04:27:06.615Z,99835.92
2022-11-28T04:29:45.684Z,99832.59
2022-11-28T04:32:14.704Z,99833.20
2022-11-28T04:34:44.588Z,99834.68
2022-11-28T04:37:14.911Z,99829.92
2022-11-28T04:39:45.272Z,99831.86
2022-11-28T04:42:19.369Z,99826.67
2022-11-28T04:44:49.837Z,99819.21
2022-11-28T04:47:17.944Z,99824.16
2022-11-28T04:49:45.992Z,99820.88
2022-11-28T04:52:53.414Z,99822.82
2022-11-28T04:55:35.503Z,99821.18
2022-11-28T04:58:23.036Z,99825.33
2022-11-28T05:00:53.093Z,99832.63
2022-11-28T05:03:21.250Z,99828.95
2022-11-28T05:05:51.444Z,99830.23
2022-11-28T05:08:19.731Z,99828.89
2022-11-28T05:10:47.475Z,99830.26
2022-11-28T05:13:15.451Z,99826.36
2022-11-28T05:15:43.250Z,99819.34
2022-11-28T05:18:11.113Z,99824.05
2022-11-28T05:20:39.118Z,99819.66
2022-11-28T05:23:06.943Z,99818.17
2022-11-28T05:25:34.726Z,99817.48
2022-11-28T05:28:02.366Z,99820.45
2022-11-28T05:30:30.001Z,99818.66
2022-11-28T05:32:59.306Z,99823.08
2022-11-28T05:35:27.653Z,99820.45
2022-11-28T05:37:55.404Z,99821.52
2022-11-28T05:40:23.156Z,99822.89
2022-11-28T05:42:50.829Z,99823.10
2022-11-28T05:45:18.417Z,99818.51
2022-11-28T05:47:46.068Z,99823.95
2022-11-28T05:50:13.718Z,99819.48
2022-11-28T05:52:41.318Z,99826.55
2022-11-28T05:55:09.295Z,99824.66
2022-11-28T05:57:36.968Z,99822.88
2022-11-28T06:00:05.212Z,99824.02
2022-11-28T06:02:39.333Z,99827.16
2022-11-28T06:05:27.366Z,99824.78
2022-11-28T06:07:55.070Z,99818.73
2022-11-28T06:10:22.851Z,99822.69
2022-11-28T06:12:50.489Z,99816.45
2022-11-28T06:15:18.203Z,99813.44
2022-11-28T06:17:45.817Z,99813.65
2022-11-28T06:20:13.625Z,99813.91
2022-11-28T06:22:41.235Z,99818.39
2022-11-28T06:25:08.911Z,99810.06
2022-11-28T06:27:36.531Z,99814.55
2022-11-28T06:30:07.113Z,99808.64
2022-11-28T06:32:35.799Z,99812.86
2022-11-28T06:35:03.620Z,99808.59
2022-11-28T06:37:31.242Z,99808.03
2022-11-28T06:39:59.229Z,99816.70
2022-11-28T06:42:26.857Z,99817.84
2022-11-28T06:44:54.441Z,99818.84
2022-11-28T06:47:22.269Z,99809.44
2022-11-28T06:49:49.879Z,99811.43
2022-11-28T06:52:17.522Z,99813.98
2022-11-28T06:54:45.230Z,99810.85
2022-11-28T06:57:13.024Z,99807.92
2022-11-28T06:59:40.894Z,99809.23
2022-11-28T07:02:10.987Z,99806.82
2022-11-28T07:04:38.682Z,99804.21
2022-11-28T07:07:06.388Z,99805.10
2022-11-28T07:09:34.013Z,99807.61
2022-11-28T07:12:01.810Z,99804.54
2022-11-28T07:14:32.971Z,99802.63
2022-11-28T07:17:01.013Z,99805.44
2022-11-28T07:19:28.700Z,99803.12
2022-11-28T07:21:56.310Z,99797.83
2022-11-28T07:24:24.180Z,99797.35
2022-11-28T07:26:51.824Z,99795.05
2022-11-28T07:29:19.553Z,99793.49
2022-11-28T07:31:47.252Z,99793.02
2022-11-28T07:34:14.959Z,99795.29
2022-11-28T07:36:42.821Z,99792.88
2022-11-28T07:39:13.955Z,99789.23
2022-11-28T07:41:41.559Z,99783.39
2022-11-28T07:44:09.792Z,99788.30
2022-11-28T07:46:38.686Z,99788.94
2022-11-28T07:49:06.409Z,99788.57
2022-11-28T07:51:34.428Z,99787.92
2022-11-28T07:54:04.675Z,99787.04
2022-11-28T07:57:04.601Z,99784.15
2022-11-28T07:59:22.798Z,99784.58
2022-11-28T08:01:50.683Z,99783.66
2022-11-28T08:04:19.329Z,99779.70
2022-11-28T08:06:47.053Z,99779.17
2022-11-28T08:09:14.817Z,99776.72
2022-11-28T08:11:43.024Z,99775.96
2022-11-28T08:14:10.976Z,99769.10
2022-11-28T08:16:41.281Z,99771.13
2022-11-28T08:19:09.032Z,99776.70
2022-11-28T08:21:37.536Z,99777.03
2022-11-28T08:24:06.186Z,99775.39
2022-11-28T08:26:34.380Z,99770.04
2022-11-28T08:29:02.682Z,99772.55
2022-11-28T08:31:32.859Z,99775.44
2022-11-28T08:34:02.120Z,99777.73
2022-11-28T08:36:29.826Z,99778.83
2022-11-28T08:41:47.672Z,99771.56
2022-11-28T08:44:16.100Z,99773.08
2022-11-28T08:46:43.952Z,99768.91
2022-11-28T08:49:11.638Z,99767.50
2022-11-28T08:51:39.236Z,99769.08
2022-11-28T08:54:06.899Z,99771.02
2022-11-28T08:56:34.660Z,99770.83
2022-11-28T08:59:02.407Z,99769.98
2022-11-28T09:01:30.220Z,99767.58
2022-11-28T09:03:58.823Z,99764.21
2022-11-28T09:06:26.542Z,99758.29
2022-11-28T09:08:54.137Z,99756.80
2022-11-28T09:11:22.910Z,99754.57
2022-11-28T09:13:51.087Z,99756.37
2022-11-28T09:16:18.851Z,99755.05
2022-11-28T09:18:46.870Z,99751.33
2022-11-28T09:21:15.466Z,99754.35
2022-11-28T09:23:44.691Z,99751.17
2022-11-28T09:26:18.065Z,99748.78
2022-11-28T09:28:45.821Z,99745.20
2022-11-28T09:31:15.123Z,99745.09
2022-11-28T09:33:43.680Z,99742.66
2022-11-28T09:36:17.337Z,99746.81
2022-11-28T09:38:45.421Z,99740.25
2022-11-28T09:41:25.043Z,99741.63
2022-11-28T09:43:55.234Z,99736.80
2022-11-28T09:46:33.086Z,99729.27
2022-11-28T09:49:04.967Z,99731.02
2022-11-28T09:51:47.593Z,99730.38
2022-11-28T09:54:25.358Z,99725.73
2022-11-28T09:56:53.088Z,99725.60
2022-11-28T09:59:28.516Z,99719.95
2022-11-28T10:02:34.828Z,99720.83
2022-11-28T10:05:36.433Z,99717.62
2022-11-28T10:08:22.424Z,99711.11
2022-11-28T10:11:24.512Z,99708.46
2022-11-28T10:14:09.838Z,99705.54
2022-11-28T10:17:02.676Z,99705.65
2022-11-28T10:19:57.302Z,99702.09
2022-11-28T10:22:40.793Z,99699.15
2022-11-28T10:25:29.482Z,99699.11
2022-11-28T10:27:57.862Z,99691.30
2022-11-28T10:30:34.216Z,99694.88
2022-11-28T10:33:01.929Z,99689.85
2022-11-28T10:35:44.119Z,99695.43
2022-11-28T10:38:14.696Z,99694.27
2022-11-28T10:40:50.015Z,99691.39
2022-11-28T10:43:23.820Z,99690.99
2022-11-28T10:46:02.885Z,99691.66
2022-11-28T10:48:48.427Z,99693.76
2022-11-28T10:51:24.275Z,99691.09
2022-11-28T10:54:10.512Z,99690.15
2022-11-28T10:56:47.728Z,99693.59
2022-11-28T10:59:44.339Z,99692.79
2022-11-28T11:02:40.450Z,99688.91
2022-11-28T11:05:14.643Z,99687.98
2022-11-28T11:07:57.689Z,99685.73
2022-11-28T11:10:33.788Z,99679.86
2022-11-28T11:13:14.477Z,99678.99
2022-11-28T11:15:42.287Z,99679.73
2022-11-28T11:18:25.862Z,99679.41
2022-11-28T11:21:17.998Z,99677.41
2022-11-28T11:23:46.636Z,99679.43
2022-11-28T11:26:23.791Z,99677.95
2022-11-28T11:28:52.265Z,99683.29
2022-11-28T11:31:23.687Z,99685.33
2022-11-28T11:34:16.015Z,99687.51
2022-11-28T11:36:43.800Z,99685.35
2022-11-28T11:39:23.468Z,99682.23
2022-11-28T11:42:13.771Z,99685.48
2022-11-28T11:44:45.349Z,99678.10
2022-11-28T11:47:13.115Z,99672.56
2022-11-28T11:49:44.106Z,99676.10
2022-11-28T11:52:12.907Z,99673.77
2022-11-28T11:54:54.835Z,99674.44
2022-11-28T11:57:33.120Z,99675.66
2022-11-28T12:00:22.928Z,99670.20
2022-11-28T12:03:17.478Z,99664.92
2022-11-28T12:09:23.330Z,99670.10
2022-11-28T12:11:55.208Z,99663.06
2022-11-28T12:14:32.753Z,99658.95
2022-11-28T12:17:48.793Z,99658.89
2022-11-28T12:20:48.962Z,99654.66
2022-11-28T12:23:39.358Z,99651.17
2022-11-28T12:26:37.901Z,99650.60
2022-11-28T12:29:22.259Z,99647.77
2022-11-28T12:31:59.909Z,99643.45
2022-11-28T12:34:52.444Z,99645.13
2022-11-28T12:37:32.971Z,99641.06
2022-11-28T12:40:10.204Z,99639.41
2022-11-28T12:42:50.396Z,99641.27
2022-11-28T12:45:35.041Z,99643.31
2022-11-28T12:48:23.885Z,99640.60
2022-11-28T12:51:16.786Z,99643.30
2022-11-28T12:53:59.680Z,99641.95
2022-11-28T12:56:51.580Z,99643.48
2022-11-28T12:59:52.729Z,99640.65
2022-11-28T13:02:23.260Z,99640.63
2022-11-28T13:05:10.605Z,99635.59
2022-11-28T13:07:49.022Z,99633.41
2022-11-28T13:10:33.486Z,99639.23
2022-11-28T13:13:05.808Z,99638.88
2022-11-28T13:15:47.199Z,99633.80
2022-11-28T13:18:50.585Z,99631.81
2022-11-28T13:21:39.936Z,99629.25
2022-11-28T13:24:22.395Z,99629.69
2022-11-28T13:27:09.500Z,99627.20
2022-11-28T13:29:45.062Z,99619.86
2022-11-28T13:32:21.316Z,99623.26
2022-11-28T13:34:49.474Z,99627.91
2022-11-28T13:41:00.498Z,99627.54
2022-11-28T13:43:52.511Z,99624.96
2022-11-28T13:46:20.476Z,99622.38
2022-11-28T13:51:40.937Z,99616.28
2022-11-28T13:54:17.979Z,99615.52
2022-11-28T13:56:50.592Z,99614.45
2022-11-28T13:59:21.135Z,99616.79
2022-11-28T14:01:56.297Z,99616.23
2022-11-28T14:04:24.818Z,99611.15
2022-11-28T14:06:59.580Z,99613.43
2022-11-28T14:09:47.680Z,99614.05
2022-11-28T14:12:34.177Z,99610.23
2022-11-28T14:15:07.556Z,99606.72
2022-11-28T14:17:52.294Z,99609.23
2022-11-28T14:20:31.343Z,99610.81
2022-11-28T14:23:13.728Z,99607.94
2022-11-28T14:25:44.597Z,99606.38
2022-11-28T14:28:36.727Z,99607.05
2022-11-28T14:31:10.998Z,99602.98
2022-11-28T14:33:44.060Z,99601.65
2022-11-28T14:36:35.948Z,99603.58
2022-11-28T14:39:07.334Z,99601.72
2022-11-28T14:42:04.924Z,99601.55
2022-11-28T14:44:54.702Z,99597.72
2022-11-28T14:47:24.246Z,99599.63
2022-11-28T14:50:04.365Z,99601.35
2022-11-28T14:52:41.772Z,99605.39
2022-11-28T14:55:10.936Z,99608.16
2022-11-28T14:58:00.145Z,99605.83
2022-11-28T15:00:55.295Z,99602.31
2022-11-28T15:03:50.693Z,99602.34
2022-11-28T15:06:21.909Z,99603.24
2022-11-28T15:09:34.975Z,99600.44
2022-11-28T15:12:33.401Z,99608.48
2022-11-28T15:15:01.534Z,99606.70
2022-11-28T15:17:33.431Z,99602.65
2022-11-28T15:20:09.253Z,99603.23
2022-11-28T15:22:42.497Z,99603.48
2022-11-28T15:25:27.556Z,99606.28
2022-11-28T15:27:55.567Z,99606.34
2022-11-28T15:30:26.607Z,99604.74
2022-11-28T15:32:59.613Z,99603.33
2022-11-28T15:35:27.885Z,99602.95
2022-11-28T15:37:58.069Z,99602.52
2022-11-28T15:40:29.323Z,99606.40
2022-11-28T15:42:57.242Z,99607.91
2022-11-28T15:45:27.746Z,99606.83
2022-11-28T15:47:56.680Z,99606.46
2022-11-28T15:50:33.896Z,99606.16
2022-11-28T15:53:18.205Z,99607.16
2022-11-28T15:55:46.735Z,99603.64
2022-11-28T15:58:30.914Z,99603.66
2022-11-28T16:01:09.871Z,99606.05
2022-11-28T16:03:59.863Z,99600.15
2022-11-28T16:06:34.288Z,99596.95
2022-11-28T16:09:25.934Z,99601.55
2022-11-28T16:11:54.166Z,99603.52
2022-11-28T16:14:26.892Z,99605.98
2022-11-28T16:16:55.624Z,99607.15
2022-11-28T16:19:26.403Z,99606.20
2022-11-28T16:21:59.760Z,99605.98
2022-11-28T16:24:35.454Z,99602.05
2022-11-28T16:27:06.299Z,99606.96
2022-11-28T16:29:36.122Z,99606.77
2022-11-28T16:32:29.398Z,99608.02
2022-11-28T16:35:00.285Z,99607.44
2022-11-28T16:37:30.029Z,99609.41
2022-11-28T16:40:04.809Z,99613.13
2022-11-28T16:42:34.194Z,99612.14
2022-11-28T16:45:14.675Z,99610.62
2022-11-28T16:47:44.209Z,99608.34
2022-11-28T16:50:22.739Z,99612.36
2022-11-28T16:52:55.533Z,99611.83
2022-11-28T16:55:33.313Z,99613.05
2022-11-28T16:58:07.571Z,99616.27
2022-11-28T17:00:36.257Z,99613.33
2022-11-28T17:03:07.184Z,99611.15
2022-11-28T17:05:37.337Z,99612.21
2022-11-28T17:08:05.045Z,99615.80
2022-11-28T17:10:32.742Z,99613.16
2022-11-28T17:13:00.408Z,99616.56
2022-11-28T17:15:28.051Z,99617.21
2022-11-28T17:17:57.230Z,99617.21
2022-11-28T17:20:24.896Z,99619.03
2022-11-28T17:22:56.368Z,99617.07
2022-11-28T17:25:24.073Z,99617.15
2022-11-28T17:27:53.430Z,99619.45
2022-11-28T17:30:21.248Z,99622.54
2022-11-28T17:32:49.018Z,99624.20
2022-11-28T17:35:20.051Z,99623.11
2022-11-28T17:37:47.866Z,99621.37
2022-11-28T17:40:34.231Z,99623.87
2022-11-28T17:43:02.466Z,99624.27
2022-11-28T17:45:32.493Z,99622.55
2022-11-28T17:48:00.216Z,99623.65
2022-11-28T17:50:28.864Z,99623.61
2022-11-28T17:52:56.590Z,99623.02
2022-11-28T17:55:24.371Z,99621.50
2022-11-28T17:57:54.078Z,99620.88
2022-11-28T18:00:21.952Z,99615.52
2022-11-28T18:02:49.811Z,99616.10
2022-11-28T18:05:17.976Z,99616.27
2022-11-28T18:07:45.690Z,99616.71
2022-11-28T18:10:13.447Z,99618.68
2022-11-28T18:12:41.621Z,99622.23
2022-11-28T18:15:10.591Z,99619.88
2022-11-28T18:17:39.092Z,99617.45
2022-11-28T18:20:13.880Z,99619.79
2022-11-28T18:22:41.646Z,99616.64
2022-11-28T18:25:09.549Z,99622.17
2022-11-28T18:27:37.369Z,99615.10
2022-11-28T18:30:06.072Z,99620.89
2022-11-28T18:32:33.859Z,99622.02
2022-11-28T18:35:02.279Z,99619.98
2022-11-28T18:37:30.242Z,99623.29
2022-11-28T18:39:58.183Z,99622.23
2022-11-28T18:42:26.034Z,99621.56
2022-11-28T18:44:53.694Z,99620.00
2022-11-28T18:47:21.433Z,99615.70
2022-11-28T18:49:49.075Z,99615.23
2022-11-28T18:52:17.158Z,99615.54
2022-11-28T18:54:45.976Z,99616.81
2022-11-28T18:57:14.638Z,99618.00
2022-11-28T18:59:47.804Z,99616.89
2022-11-28T19:02:19.290Z,99617.14
2022-11-28T19:04:47.270Z,99615.13
2022-11-28T19:07:14.944Z,99615.98
2022-11-28T19:09:45.102Z,99617.34
2022-11-28T19:12:13.526Z,99619.89
2022-11-28T19:14:41.217Z,99619.50
2022-11-28T19:17:08.960Z,99620.89
2022-11-28T19:19:44.263Z,99617.78
2022-11-28T19:22:12.183Z,99617.30
2022-11-28T19:24:39.942Z,99621.56
2022-11-28T19:27:13.825Z,99620.63
2022-11-28T19:29:42.956Z,99619.77
2022-11-28T19:32:11.156Z,99618.39
2022-11-28T19:34:38.872Z,99616.37
2022-11-28T19:37:06.520Z,99618.14
2022-11-28T19:39:34.385Z,99615.02
2022-11-28T19:42:02.395Z,99614.36
2022-11-28T19:44:30.589Z,99612.55
2022-11-28T19:46:59.000Z,99609.52
2022-11-28T19:49:26.837Z,99608.94
2022-11-28T19:51:54.735Z,99606.70
2022-11-28T19:54:23.329Z,99606.13
2022-11-28T19:56:53.884Z,99613.14
2022-11-28T19:59:21.567Z,99609.36
2022-11-28T20:01:50.184Z,99606.95
2022-11-28T20:04:19.292Z,99609.95
2022-11-28T20:06:46.915Z,99607.29
2022-11-28T20:09:14.706Z,99608.04
2022-11-28T20:11:43.655Z,99611.71
2022-11-28T20:14:14.456Z,99612.88
2022-11-28T20:16:42.605Z,99617.33
2022-11-28T20:19:12.443Z,99614.80
2022-11-28T20:21:40.328Z,99613.08
2022-11-28T20:24:10.224Z,99614.98
2022-11-28T20:26:40.765Z,99613.73
2022-11-28T20:29:13.223Z,99616.01
2022-11-28T20:31:46.373Z,99617.75
2022-11-28T20:34:17.428Z,99614.60
2022-11-28T20:36:46.278Z,99614.72
2022-11-28T20:39:14.060Z,99613.63
2022-11-28T20:41:41.672Z,99613.34
2022-11-28T20:44:10.171Z,99616.27
2022-11-28T20:46:38.215Z,99613.94
2022-11-28T20:49:07.150Z,99612.34
2022-11-28T20:51:35.634Z,99611.78
2022-11-28T20:54:05.174Z,99618.10
2022-11-28T20:57:04.963Z,99615.95
2022-11-28T20:59:26.923Z,99613.00
2022-11-28T21:01:54.672Z,99619.44
2022-11-28T21:04:22.409Z,99617.38
2022-11-28T21:06:50.135Z,99618.23
2022-11-28T21:09:20.067Z,99613.05
2022-11-28T21:11:58.165Z,99611.09
2022-11-28T21:14:28.456Z,99611.23
2022-11-28T21:16:57.363Z,99613.94
2022-11-28T21:19:25.004Z,99608.58
2022-11-28T21:21:52.814Z,99613.76
2022-11-28T21:24:20.534Z,99612.70
2022-11-28T21:26:53.047Z,99612.33
2022-11-28T21:29:23.037Z,99618.39
2022-11-28T21:31:50.830Z,99619.86
2022-11-28T21:34:19.426Z,99620.31
2022-11-28T21:36:47.643Z,99618.44
2022-11-28T21:39:18.855Z,99621.79
2022-11-28T21:41:46.729Z,99618.55
2022-11-28T21:44:14.427Z,99619.64
2022-11-28T21:46:42.190Z,99621.73
2022-11-28T21:49:10.016Z,99619.08
2022-11-28T21:51:40.537Z,99619.30
2022-11-28T21:54:12.641Z,99619.77
2022-11-28T21:56:41.051Z,99621.10
2022-11-28T21:59:08.809Z,99616.25
2022-11-28T22:01:36.500Z,99620.05
2022-11-28T22:04:05.446Z,99620.19
2022-11-28T22:06:33.793Z,99616.95
2022-11-28T22:09:08.626Z,99617.23
2022-11-28T22:11:38.438Z,99613.65
2022-11-28T22:14:06.469Z,99617.95
2022-11-28T22:16:34.731Z,99615.48
2022-11-28T22:19:03.989Z,99617.55
2022-11-28T22:24:19.481Z,99615.45
2022-11-28T22:26:47.540Z,99614.27
2022-11-28T22:29:15.557Z,99613.08
2022-11-28T22:31:43.509Z,99611.96
2022-11-28T22:34:11.840Z,99609.59
2022-11-28T22:36:40.163Z,99609.23
2022-11-28T22:39:10.858Z,99609.80
2022-11-28T22:41:38.894Z,99609.20
2022-11-28T22:44:06.539Z,99612.66
2022-11-28T22:46:34.724Z,99610.87
2022-11-28T22:49:03.546Z,99613.05
2022-11-28T22:51:31.479Z,99612.77
2022-11-28T22:54:01.070Z,99613.65
2022-11-28T22:56:31.804Z,99615.75
2022-11-28T22:59:00.428Z,99610.39
2022-11-28T23:01:30.788Z,99613.88
2022-11-28T23:03:59.316Z,99609.31
2022-11-28T23:06:30.280Z,99614.02
2022-11-28T23:08:59.139Z,99617.08
2022-11-28T23:11:30.910Z,99612.41
2022-11-28T23:14:00.186Z,99606.46
2022-11-28T23:16:30.718Z,99603.50
2022-11-28T23:19:00.981Z,99602.73
2022-11-28T23:21:31.204Z,99602.65
2022-11-28T23:23:59.512Z,99599.44
2022-11-28T23:26:30.132Z,99601.36
2022-11-28T23:29:00.647Z,99605.25
2022-11-28T23:31:30.960Z,99604.02
2022-11-28T23:33:59.312Z,99606.49
2022-11-28T23:36:30.277Z,99607.33
2022-11-28T23:39:01.808Z,99608.45
2022-11-28T23:41:30.108Z,99607.33
2022-11-28T23:43:58.672Z,99608.15
2022-11-28T23:46:27.167Z,99606.73
2022-11-28T23:48:54.928Z,99601.74
2022-11-28T23:51:24.936Z,99603.45
2022-11-28T23:53:53.140Z,99600.32
2022-11-28T23:56:23.260Z,99604.65
2022-11-28T23:58:51.441Z,99602.75
